KBWD/BWD METAR and TAF weather

Enter ICAO airport designator
Station Type Date Time Source
KBWD METAR 2018/12/10 17:15 UTC NOAA

KBWD 101715Z AUTO 00000KT 10SM CLR 08/M01 A3041 RMK AO1


Station Type Date Time Source
KBWD Decoded METAR 2018/12/10 17:15 UTC NOAA

Brownwood, Brownwood Regional Airport, TX, United States (KBWD) 31-48N 098-57W
Dec 10, 2018 - 12:15 PM EST / 2018.12.10 1715 UTC
Wind: Calm:0
Visibility: 10 mile(s):0
Sky conditions: clear
Temperature: 46 F (8 C)
Dew Point: 30 F (-1 C)
Relative Humidity: 52%
Pressure (altimeter): 30.41 in. Hg (1029 hPa)
ob: KBWD 101715Z AUTO 00000KT 10SM CLR 08/M01 A3041 RMK AO1
cycle: 17

Station Type Date Time Source
KBWD TAF UTC NOAA

Error!


Example: see airport list